Terminal Aerodrome Forecast
Issued by NWS

Home | Current Version | Previous Version | Text Only | Print | Product List | Glossary On
Versions: 1 2 3 4 5 6 7 8 9 10 11 12 13 14 15 16
271
FTUS41 KCAR 171122
TAFPQI
TAF
KPQI 171122Z 1712/1812 34010KT P6SM SCT030
     FM171400 35007KT P6SM SCT250
     FM180000 VRB03KT P6SM SCT250
     FM180500 09004KT P6SM OVC200=

USA.gov is the U.S. government's official web portal to all federal, state and local government web resources and services.